createdAt,value
2019-01-17T00:01:52.888Z,1.76
2019-01-17T00:04:22.855Z,1.84
2019-01-17T00:07:10.939Z,1.84
2019-01-17T00:09:51.393Z,1.71
2019-01-17T00:12:24.065Z,1.79
2019-01-17T00:15:00.261Z,1.77
2019-01-17T00:17:33.349Z,1.71
2019-01-17T00:20:03.304Z,1.65
2019-01-17T00:22:42.300Z,1.66
2019-01-17T00:25:30.625Z,1.70
2019-01-17T00:28:03.629Z,1.71
2019-01-17T00:30:36.227Z,1.91
2019-01-17T00:33:15.230Z,1.72
2019-01-17T00:35:51.624Z,1.73
2019-01-17T00:38:21.665Z,1.90
2019-01-17T00:40:51.697Z,1.88
2019-01-17T00:43:27.131Z,1.61
2019-01-17T00:46:02.948Z,1.45
2019-01-17T00:48:32.943Z,1.54
2019-01-17T00:51:18.976Z,1.80
2019-01-17T00:53:51.692Z,2.23
2019-01-17T00:56:36.587Z,1.43
2019-01-17T00:59:12.978Z,1.42
2019-01-17T01:01:48.818Z,1.49
2019-01-17T01:04:18.861Z,1.30
2019-01-17T01:07:05.115Z,1.43
2019-01-17T01:09:41.305Z,1.26
2019-01-17T01:12:11.328Z,0.94
2019-01-17T01:14:47.076Z,0.97
2019-01-17T01:17:20.314Z,1.02
2019-01-17T01:20:06.506Z,1.96
2019-01-17T01:22:39.582Z,1.08
2019-01-17T01:25:20.012Z,0.86
2019-01-17T01:27:59.330Z,0.95
2019-01-17T01:30:43.958Z,0.97
2019-01-17T01:33:31.907Z,0.94
2019-01-17T01:36:01.901Z,0.87
2019-01-17T01:38:40.734Z,1.06
2019-01-17T01:41:10.715Z,0.85
2019-01-17T01:43:40.673Z,0.97
2019-01-17T01:46:22.386Z,0.89
2019-01-17T01:48:52.403Z,0.78
2019-01-17T01:51:31.145Z,0.83
2019-01-17T01:53:59.469Z,0.81
2019-01-17T01:56:27.792Z,1.00
2019-01-17T01:58:56.132Z,0.75
2019-01-17T02:01:25.171Z,0.88
2019-01-17T02:03:53.570Z,0.84
2019-01-17T02:06:21.955Z,0.82
2019-01-17T02:08:50.537Z,0.75
2019-01-17T02:11:18.857Z,0.58
2019-01-17T02:13:47.793Z,0.68
2019-01-17T02:16:16.289Z,0.80
2019-01-17T02:18:44.641Z,0.90
2019-01-17T02:21:13.245Z,0.92
2019-01-17T02:23:41.937Z,0.82
2019-01-17T02:26:10.622Z,0.69
2019-01-17T02:28:39.009Z,0.83
2019-01-17T02:31:07.416Z,0.85
2019-01-17T02:33:35.732Z,1.10
2019-01-17T02:36:04.663Z,1.02
2019-01-17T02:38:32.978Z,0.97
2019-01-17T02:41:01.628Z,0.92
2019-01-17T02:43:29.968Z,0.86
2019-01-17T02:45:58.363Z,0.87
2019-01-17T02:48:26.701Z,0.67
2019-01-17T02:50:55.016Z,0.47
2019-01-17T02:53:23.489Z,0.43
2019-01-17T02:55:51.878Z,0.46
2019-01-17T02:58:20.491Z,0.46
2019-01-17T03:00:48.888Z,0.49
2019-01-17T03:03:17.196Z,0.58
2019-01-17T03:05:45.659Z,0.54
2019-01-17T03:08:13.984Z,0.52
2019-01-17T03:10:42.723Z,0.57
2019-01-17T03:13:11.105Z,0.29
2019-01-17T03:15:39.520Z,0.28
2019-01-17T03:18:07.876Z,0.28
2019-01-17T03:20:36.255Z,0.26
2019-01-17T03:23:04.867Z,0.38
2019-01-17T03:25:33.254Z,0.36
2019-01-17T03:28:01.653Z,0.26
2019-01-17T03:30:30.289Z,0.24
2019-01-17T03:32:58.631Z,0.22
2019-01-17T03:35:27.009Z,0.11
2019-01-17T03:37:55.414Z,-0.02
2019-01-17T03:40:23.800Z,0.11
2019-01-17T03:42:52.207Z,0.04
2019-01-17T03:45:20.521Z,0.57
2019-01-17T03:47:48.841Z,0.05
2019-01-17T03:50:17.240Z,0.23
2019-01-17T03:52:45.624Z,0.21
2019-01-17T03:55:16.458Z,0.31
2019-01-17T03:57:44.858Z,0.23
2019-01-17T04:00:16.508Z,0.15
2019-01-17T04:02:44.901Z,0.44
2019-01-17T04:05:13.577Z,0.21
2019-01-17T04:07:42.060Z,0.07
2019-01-17T04:10:13.514Z,0.14
2019-01-17T04:12:41.853Z,-0.07
2019-01-17T04:15:12.105Z,0.15
2019-01-17T04:17:40.518Z,0.00
2019-01-17T04:20:14.045Z,-0.14
2019-01-17T04:22:42.788Z,-0.29
2019-01-17T04:25:11.267Z,-0.28
2019-01-17T04:27:39.651Z,-0.23
2019-01-17T04:30:11.299Z,0.13
2019-01-17T04:32:40.005Z,0.36
2019-01-17T04:35:08.354Z,0.00
2019-01-17T04:37:36.957Z,-0.11
2019-01-17T04:40:08.531Z,0.09
2019-01-17T04:42:36.845Z,-0.14
2019-01-17T04:45:06.807Z,-0.29
2019-01-17T04:47:35.210Z,0.20
2019-01-17T04:50:04.472Z,-0.19
2019-01-17T04:52:32.955Z,-0.30
2019-01-17T04:55:05.443Z,-0.20
2019-01-17T04:57:31.700Z,-0.30
2019-01-17T05:00:00.017Z,-0.18
2019-01-17T05:02:28.430Z,-0.19
2019-01-17T05:04:56.741Z,-0.20
2019-01-17T05:07:25.064Z,-0.12
2019-01-17T05:09:53.402Z,0.15
2019-01-17T05:12:21.713Z,0.39
2019-01-17T05:14:50.060Z,-0.02
2019-01-17T05:17:18.759Z,-0.05
2019-01-17T05:19:47.233Z,-0.20
2019-01-17T05:22:15.639Z,-0.30
2019-01-17T05:24:44.052Z,-0.35
2019-01-17T05:27:12.378Z,-0.38
2019-01-17T05:29:40.764Z,-0.52
2019-01-17T05:32:09.238Z,-0.31
2019-01-17T05:34:39.611Z,-0.29
2019-01-17T05:37:08.373Z,-0.31
2019-01-17T05:39:36.690Z,-0.49
2019-01-17T05:42:05.446Z,-0.35
2019-01-17T05:44:33.760Z,-0.34
2019-01-17T05:47:02.166Z,-0.37
2019-01-17T05:49:30.483Z,-0.27
2019-01-17T05:51:58.871Z,-0.20
2019-01-17T05:54:27.211Z,-0.29
2019-01-17T05:56:55.596Z,-0.21
2019-01-17T05:59:23.957Z,-0.31
2019-01-17T06:01:52.274Z,-0.15
2019-01-17T06:04:20.608Z,-0.02
2019-01-17T06:06:48.926Z,-0.02
2019-01-17T06:09:17.644Z,-0.12
2019-01-17T06:11:45.969Z,-0.23
2019-01-17T06:14:14.289Z,-0.28
2019-01-17T06:16:42.627Z,-0.34
2019-01-17T06:19:10.951Z,-0.25
2019-01-17T06:21:39.358Z,-0.31
2019-01-17T06:24:07.746Z,-0.47
2019-01-17T06:26:36.142Z,-0.34
2019-01-17T06:29:04.857Z,-0.49
2019-01-17T06:31:33.581Z,-0.56
2019-01-17T06:34:01.984Z,-0.36
2019-01-17T06:36:30.309Z,-0.20
2019-01-17T06:38:58.650Z,-0.30
2019-01-17T06:41:26.975Z,-0.36
2019-01-17T06:43:55.328Z,0.64
2019-01-17T06:46:23.644Z,0.95
2019-01-17T06:48:51.963Z,1.37
2019-01-17T06:51:20.336Z,0.57
2019-01-17T06:53:48.659Z,-0.19
2019-01-17T06:56:17.133Z,0.02
2019-01-17T06:58:45.891Z,0.02
2019-01-17T07:01:14.220Z,-0.02
2019-01-17T07:03:42.536Z,-0.11
2019-01-17T07:06:10.893Z,-0.16
2019-01-17T07:08:39.619Z,-0.18
2019-01-17T07:11:07.936Z,-0.16
2019-01-17T07:13:36.283Z,-0.14
2019-01-17T07:16:05.063Z,-0.06
2019-01-17T07:18:33.409Z,0.02
2019-01-17T07:21:01.717Z,0.12
2019-01-17T07:23:30.419Z,0.24
2019-01-17T07:25:58.812Z,0.06
2019-01-17T07:28:27.503Z,0.21
2019-01-17T07:30:55.813Z,0.24
2019-01-17T07:33:24.489Z,0.23
2019-01-17T07:35:52.807Z,0.10
2019-01-17T07:38:21.289Z,0.13
2019-01-17T07:40:49.607Z,0.27
2019-01-17T07:43:17.991Z,0.30
2019-01-17T07:45:46.377Z,0.62
2019-01-17T07:48:14.641Z,0.75
2019-01-17T07:50:42.987Z,0.81
2019-01-17T07:53:11.388Z,0.86
2019-01-17T07:55:39.717Z,0.96
2019-01-17T07:58:08.100Z,1.08
2019-01-17T08:00:36.448Z,1.11
2019-01-17T08:03:05.138Z,1.03
2019-01-17T08:05:33.617Z,1.13
2019-01-17T08:08:02.003Z,1.22
2019-01-17T08:10:30.505Z,1.38
2019-01-17T08:12:58.839Z,1.55
2019-01-17T08:15:27.239Z,1.64
2019-01-17T08:17:55.575Z,1.54
2019-01-17T08:20:24.522Z,1.70
2019-01-17T08:22:52.927Z,1.64
2019-01-17T08:25:21.584Z,2.42
2019-01-17T08:27:49.963Z,1.94
2019-01-17T08:30:24.009Z,2.31
2019-01-17T08:32:52.403Z,2.24
2019-01-17T08:35:21.166Z,2.21
2019-01-17T08:37:49.549Z,2.27
2019-01-17T08:40:29.913Z,2.06
2019-01-17T08:42:58.596Z,2.31
2019-01-17T08:45:26.990Z,2.27
2019-01-17T08:47:55.370Z,2.35
2019-01-17T08:50:24.154Z,2.47
2019-01-17T08:52:52.462Z,2.45
2019-01-17T08:55:21.170Z,2.34
2019-01-17T08:57:49.913Z,2.46
2019-01-17T09:00:23.960Z,2.67
2019-01-17T09:02:52.295Z,3.26
2019-01-17T09:05:20.680Z,3.52
2019-01-17T09:07:49.180Z,2.86
2019-01-17T09:10:20.233Z,2.82
2019-01-17T09:12:48.632Z,3.19
2019-01-17T09:15:22.927Z,3.31
2019-01-17T09:17:51.343Z,3.43
2019-01-17T09:20:19.990Z,3.48
2019-01-17T09:22:48.374Z,3.41
2019-01-17T09:25:18.031Z,3.50
2019-01-17T09:27:46.349Z,3.59
2019-01-17T09:30:17.124Z,3.90
2019-01-17T09:32:45.436Z,3.95
2019-01-17T09:35:15.411Z,4.30
2019-01-17T09:37:44.270Z,4.21
2019-01-17T09:40:15.227Z,4.39
2019-01-17T09:42:43.991Z,4.47
2019-01-17T09:45:12.940Z,4.67
2019-01-17T09:47:41.413Z,4.94
2019-01-17T09:50:12.900Z,5.06
2019-01-17T09:52:41.305Z,5.21
2019-01-17T09:55:10.342Z,4.87
2019-01-17T09:57:38.693Z,5.22
2019-01-17T10:00:21.608Z,5.31
2019-01-17T10:02:50.366Z,4.99
2019-01-17T10:05:18.743Z,4.99
2019-01-17T10:07:47.305Z,5.18
2019-01-17T10:10:17.984Z,5.01
2019-01-17T10:12:46.829Z,5.51
2019-01-17T10:15:21.150Z,5.51
2019-01-17T10:18:01.922Z,5.88
2019-01-17T10:21:05.264Z,5.61
2019-01-17T10:23:39.426Z,6.23
2019-01-17T10:26:10.938Z,6.42
2019-01-17T10:29:01.091Z,6.42
2019-01-17T10:31:38.007Z,6.37
2019-01-17T10:34:12.276Z,6.66
2019-01-17T10:36:49.594Z,6.78
2019-01-17T10:39:29.534Z,7.04
2019-01-17T10:42:03.967Z,6.64
2019-01-17T10:44:35.822Z,6.64
2019-01-17T10:47:19.322Z,7.40
2019-01-17T10:49:53.531Z,7.47
2019-01-17T10:52:59.960Z,7.60
2019-01-17T10:55:34.180Z,7.60
2019-01-17T10:58:14.944Z,8.10
2019-01-17T11:00:55.324Z,8.46
2019-01-17T11:03:35.422Z,8.49
2019-01-17T11:06:26.488Z,9.28
2019-01-17T11:09:17.798Z,9.69
2019-01-17T11:11:49.301Z,9.58
2019-01-17T11:14:21.115Z,11.75
2019-01-17T11:17:26.722Z,11.83
2019-01-17T11:20:00.872Z,9.79
2019-01-17T11:22:50.478Z,12.73
2019-01-17T11:25:53.548Z,11.13
2019-01-17T11:28:30.884Z,11.98
2019-01-17T11:31:11.005Z,13.29
2019-01-17T11:33:57.639Z,12.65
2019-01-17T11:36:44.189Z,14.04
2019-01-17T11:39:20.870Z,13.74
2019-01-17T11:41:55.120Z,14.51
2019-01-17T11:45:01.254Z,15.19
2019-01-17T11:47:59.901Z,15.20
2019-01-17T11:50:43.257Z,16.49
2019-01-17T11:53:14.734Z,15.67
2019-01-17T11:56:07.020Z,15.47
2019-01-17T11:59:13.178Z,14.01
2019-01-17T12:02:03.427Z,15.87
2019-01-17T12:04:31.182Z,13.84
2019-01-17T12:07:02.269Z,15.06
2019-01-17T12:09:30.580Z,14.96
2019-01-17T12:11:59.355Z,17.30
2019-01-17T12:14:27.739Z,16.48
2019-01-17T12:16:56.067Z,15.45
2019-01-17T12:19:24.488Z,15.72
2019-01-17T12:21:52.822Z,15.06
2019-01-17T12:24:21.130Z,16.59
2019-01-17T12:26:49.850Z,17.98
2019-01-17T12:29:18.228Z,15.15
2019-01-17T12:31:46.627Z,15.21
2019-01-17T12:34:15.207Z,17.85
2019-01-17T12:36:43.537Z,16.02
2019-01-17T12:39:13.989Z,14.59
2019-01-17T12:41:42.319Z,13.45
2019-01-17T12:44:10.634Z,14.85
2019-01-17T12:46:39.364Z,15.85
2019-01-17T12:49:08.052Z,15.82
2019-01-17T12:51:36.361Z,12.74
2019-01-17T12:54:05.133Z,13.27
2019-01-17T12:56:33.806Z,14.27
2019-01-17T12:59:02.208Z,15.23
2019-01-17T13:01:30.562Z,16.51
2019-01-17T13:03:59.041Z,16.88
2019-01-17T13:06:27.355Z,14.22
2019-01-17T13:08:55.700Z,14.52
2019-01-17T13:11:24.310Z,13.89
2019-01-17T13:13:52.639Z,13.74
2019-01-17T13:16:21.376Z,13.07
2019-01-17T13:18:49.987Z,14.73
2019-01-17T13:21:18.435Z,16.00
2019-01-17T13:23:47.353Z,15.25
2019-01-17T13:26:15.741Z,14.66
2019-01-17T13:28:44.308Z,13.68
2019-01-17T13:31:12.758Z,14.67
2019-01-17T13:33:41.093Z,14.87
2019-01-17T13:36:11.322Z,13.95
2019-01-17T13:38:39.662Z,16.28
2019-01-17T13:41:08.043Z,16.21
2019-01-17T13:43:36.410Z,15.45
2019-01-17T13:46:05.697Z,15.42
2019-01-17T13:48:34.296Z,14.76
2019-01-17T13:51:02.748Z,15.55
2019-01-17T13:53:31.159Z,16.52
2019-01-17T13:55:59.472Z,18.02
2019-01-17T13:58:27.816Z,17.57
2019-01-17T14:00:56.194Z,17.08
2019-01-17T14:03:24.516Z,16.99
2019-01-17T14:16:13.768Z,15.67
2019-01-17T14:18:42.111Z,16.37
2019-01-17T14:21:10.568Z,16.80
2019-01-17T14:23:38.900Z,16.30
2019-01-17T14:26:07.225Z,15.21
2019-01-17T14:28:35.983Z,15.88
2019-01-17T14:31:04.370Z,15.79
2019-01-17T14:33:33.077Z,15.26
2019-01-17T14:36:01.529Z,16.65
2019-01-17T14:38:29.864Z,16.86
2019-01-17T14:40:58.515Z,16.74
2019-01-17T14:43:26.985Z,16.55
2019-01-17T14:45:55.369Z,16.92
2019-01-17T14:48:23.851Z,16.88
2019-01-17T14:50:52.185Z,16.65
2019-01-17T14:53:20.507Z,16.61
2019-01-17T14:55:48.832Z,15.59
2019-01-17T14:58:17.147Z,15.83
2019-01-17T15:00:45.499Z,14.80
2019-01-17T15:03:13.788Z,14.25
2019-01-17T15:05:42.189Z,13.54
2019-01-17T15:08:10.508Z,13.02
2019-01-17T15:10:39.877Z,12.80
2019-01-17T15:13:08.800Z,12.52
2019-01-17T15:15:37.503Z,12.19
2019-01-17T15:18:06.589Z,11.54
2019-01-17T15:20:34.929Z,11.43
2019-01-17T15:23:03.412Z,11.18
2019-01-17T15:25:31.761Z,10.93
2019-01-17T15:28:00.138Z,10.35
2019-01-17T15:30:28.633Z,10.18
2019-01-17T15:32:57.017Z,10.01
2019-01-17T15:35:25.369Z,9.92
2019-01-17T15:37:53.784Z,9.86
2019-01-17T15:40:27.316Z,9.82
2019-01-17T15:42:56.056Z,9.81
2019-01-17T15:45:24.364Z,9.73
2019-01-17T15:47:52.694Z,9.61
2019-01-17T15:50:21.279Z,9.66
2019-01-17T15:52:50.073Z,9.48
2019-01-17T15:55:18.654Z,9.62
2019-01-17T15:57:47.654Z,9.67
2019-01-17T16:00:24.247Z,9.68
2019-01-17T16:02:52.708Z,9.61
2019-01-17T16:05:21.384Z,9.56
2019-01-17T16:07:49.701Z,9.47
2019-01-17T16:10:18.075Z,9.56
2019-01-17T16:12:46.409Z,9.48
2019-01-17T16:15:20.685Z,9.56
2019-01-17T16:17:49.084Z,9.61
2019-01-17T16:20:17.861Z,9.53
2019-01-17T16:22:46.646Z,9.56
2019-01-17T16:25:15.670Z,9.66
2019-01-17T16:27:44.404Z,9.61
2019-01-17T16:30:18.849Z,9.60
2019-01-17T16:32:47.233Z,9.56
2019-01-17T16:35:15.767Z,9.62
2019-01-17T16:37:44.904Z,10.26
2019-01-17T16:40:14.027Z,10.38
2019-01-17T16:42:42.711Z,10.66
2019-01-17T16:45:16.590Z,10.43
2019-01-17T16:47:45.496Z,10.29
2019-01-17T16:50:16.169Z,10.73
2019-01-17T16:52:44.697Z,9.70
2019-01-17T16:55:14.661Z,9.47
2019-01-17T16:57:48.797Z,9.45
2019-01-17T17:00:16.397Z,9.30
2019-01-17T17:02:44.708Z,9.28
2019-01-17T17:05:13.097Z,9.79
2019-01-17T17:07:41.461Z,9.28
2019-01-17T17:10:14.905Z,9.27
2019-01-17T17:12:43.272Z,9.29
2019-01-17T17:15:11.663Z,9.60
2019-01-17T17:17:40.103Z,9.22
2019-01-17T17:20:14.463Z,9.12
2019-01-17T17:22:42.837Z,9.04
2019-01-17T17:25:11.240Z,9.04
2019-01-17T17:27:39.559Z,8.94
2019-01-17T17:30:19.305Z,9.08
2019-01-17T17:32:47.613Z,9.09
2019-01-17T17:35:15.937Z,9.00
2019-01-17T17:37:44.412Z,8.86
2019-01-17T17:40:18.687Z,9.00
2019-01-17T17:42:47.464Z,8.96
2019-01-17T17:45:15.857Z,8.59
2019-01-17T17:47:44.229Z,8.41
2019-01-17T17:50:15.739Z,8.18
2019-01-17T17:52:44.052Z,8.06
2019-01-17T17:55:14.918Z,19.97
2019-01-17T17:57:43.361Z,16.94
2019-01-17T18:00:24.674Z,15.24
2019-01-17T18:02:53.647Z,15.24
2019-01-17T18:05:21.971Z,15.00
2019-01-17T18:07:50.283Z,14.26
2019-01-17T18:10:18.679Z,14.26
2019-01-17T18:12:46.992Z,13.94
2019-01-17T18:15:17.050Z,14.28
2019-01-17T18:17:45.917Z,14.37
2019-01-17T18:20:15.684Z,14.00
2019-01-17T18:22:44.071Z,14.56
2019-01-17T18:25:13.217Z,14.56
2019-01-17T18:27:41.600Z,14.92
2019-01-17T18:30:18.842Z,14.34
2019-01-17T18:32:47.474Z,14.35
2019-01-17T18:35:16.324Z,14.56
2019-01-17T18:37:44.723Z,14.56
2019-01-17T18:40:16.450Z,13.64
2019-01-17T18:42:45.093Z,14.32
2019-01-17T18:45:17.039Z,14.54
2019-01-17T18:47:45.534Z,14.54
2019-01-17T18:50:22.629Z,14.83
2019-01-17T18:52:50.928Z,14.82
2019-01-17T18:55:19.250Z,14.24
2019-01-17T18:57:47.663Z,14.24
2019-01-17T19:00:25.755Z,14.27
2019-01-17T19:02:54.083Z,14.73
2019-01-17T19:05:22.966Z,14.44
2019-01-17T19:07:51.946Z,14.84
2019-01-17T19:10:21.374Z,14.35
2019-01-17T19:12:50.144Z,14.35
2019-01-17T19:15:21.508Z,14.65
2019-01-17T19:17:49.846Z,14.65
2019-01-17T19:20:20.767Z,14.89
2019-01-17T19:22:49.334Z,14.07
2019-01-17T19:25:18.304Z,14.07
2019-01-17T19:27:46.690Z,13.73
2019-01-17T19:30:18.099Z,13.73
2019-01-17T19:32:46.792Z,13.59
2019-01-17T19:35:15.168Z,13.40
2019-01-17T19:37:44.207Z,13.40
2019-01-17T19:40:15.630Z,13.19
2019-01-17T19:42:43.921Z,13.51
2019-01-17T19:45:14.383Z,13.21
2019-01-17T19:47:42.855Z,13.19
2019-01-17T19:50:14.625Z,13.19
2019-01-17T19:52:43.018Z,14.00
2019-01-17T19:55:11.783Z,13.58
2019-01-17T19:57:40.105Z,12.92
2019-01-17T20:00:20.523Z,12.92
2019-01-17T20:02:49.001Z,12.94
2019-01-17T20:05:20.128Z,13.22
2019-01-17T20:07:48.528Z,12.97
2019-01-17T20:10:19.761Z,12.83
2019-01-17T20:12:48.168Z,12.54
2019-01-17T20:15:16.865Z,12.99
2019-01-17T20:17:45.263Z,12.99
2019-01-17T20:20:16.785Z,12.88
2019-01-17T20:22:45.504Z,12.70
2019-01-17T20:25:13.876Z,12.50
2019-01-17T20:27:42.200Z,13.06
2019-01-17T20:30:25.771Z,12.94
2019-01-17T20:32:55.164Z,12.97
2019-01-17T20:35:23.475Z,12.70
2019-01-17T20:37:51.800Z,12.70
2019-01-17T20:40:22.048Z,12.58
2019-01-17T20:42:50.442Z,12.14
2019-01-17T20:45:18.911Z,12.14
2019-01-17T20:47:47.417Z,11.98
2019-01-17T20:50:19.296Z,12.00
2019-01-17T20:52:47.634Z,12.00
2019-01-17T20:55:15.945Z,11.92
2019-01-17T20:57:45.405Z,11.83
2019-01-17T21:00:25.779Z,11.83
2019-01-17T21:02:54.108Z,12.12
2019-01-17T21:05:23.039Z,12.12
2019-01-17T21:07:51.515Z,11.98
2019-01-17T21:10:20.052Z,11.92
2019-01-17T21:12:48.757Z,12.10
2019-01-17T21:15:17.133Z,12.27
2019-01-17T21:17:45.436Z,12.27
2019-01-17T21:20:14.741Z,11.95
2019-01-17T21:22:43.411Z,11.95
2019-01-17T21:25:14.750Z,13.04
2019-01-17T21:27:43.130Z,12.37
2019-01-17T21:30:17.199Z,12.37
2019-01-17T21:32:45.511Z,12.52
2019-01-17T21:35:14.226Z,12.28
2019-01-17T21:37:42.531Z,12.28
2019-01-17T21:40:14.162Z,12.26
2019-01-17T21:42:42.658Z,12.26
2019-01-17T21:45:16.051Z,12.26
2019-01-17T21:47:44.437Z,12.12
2019-01-17T21:50:18.529Z,12.72
2019-01-17T21:52:46.910Z,12.72
2019-01-17T21:55:15.620Z,12.18
2019-01-17T21:57:44.011Z,12.27
2019-01-17T22:00:18.102Z,12.27
2019-01-17T22:02:46.406Z,12.18
2019-01-17T22:05:14.815Z,12.01
2019-01-17T22:07:43.262Z,12.01
2019-01-17T22:10:14.239Z,12.31
2019-01-17T22:12:42.610Z,12.60
2019-01-17T22:15:17.012Z,12.75
2019-01-17T22:17:45.322Z,12.71
2019-01-17T22:20:14.195Z,12.71
2019-01-17T22:22:42.492Z,12.52
2019-01-17T22:25:13.740Z,12.17
2019-01-17T22:27:42.403Z,12.14
2019-01-17T22:30:13.889Z,12.14
2019-01-17T22:32:42.214Z,12.61
2019-01-17T22:35:10.611Z,12.74
2019-01-17T22:37:38.905Z,12.25
2019-01-17T22:40:10.439Z,12.94
2019-01-17T22:42:38.837Z,12.94
2019-01-17T22:45:13.141Z,12.39
2019-01-17T22:47:43.234Z,12.39
2019-01-17T22:50:14.997Z,12.50
2019-01-17T22:52:43.309Z,12.05
2019-01-17T22:55:11.695Z,12.19
2019-01-17T22:57:40.004Z,12.19
2019-01-17T23:00:23.262Z,11.96
2019-01-17T23:02:51.573Z,11.96
2019-01-17T23:05:19.900Z,12.57
2019-01-17T23:07:48.562Z,11.73
2019-01-17T23:10:16.955Z,11.73
2019-01-17T23:12:45.261Z,11.89
2019-01-17T23:15:13.663Z,11.94
2019-01-17T23:17:42.034Z,11.76
2019-01-17T23:20:11.129Z,11.76
2019-01-17T23:22:39.442Z,12.06
2019-01-17T23:25:08.543Z,12.06
2019-01-17T23:27:36.849Z,12.21
2019-01-17T23:30:08.354Z,12.23
2019-01-17T23:32:36.661Z,12.70
2019-01-17T23:35:07.102Z,12.70
2019-01-17T23:37:35.513Z,12.60
2019-01-17T23:40:05.668Z,12.39
2019-01-17T23:42:33.988Z,12.39
2019-01-17T23:45:02.674Z,12.11
2019-01-17T23:47:31.367Z,12.35
2019-01-17T23:50:00.234Z,12.35
2019-01-17T23:52:28.660Z,12.21
2019-01-17T23:54:57.330Z,12.21
2019-01-17T23:57:25.666Z,12.20
2019-01-17T23:59:53.977Z,11.77
